createdAt,value
2023-11-07T00:00:08.697Z,3.30
2023-11-07T00:02:36.945Z,3.08
2023-11-07T00:05:05.007Z,2.95
2023-11-07T00:07:32.523Z,2.65
2023-11-07T00:09:59.636Z,4.00
2023-11-07T00:12:27.141Z,5.57
2023-11-07T00:14:54.329Z,5.28
2023-11-07T00:17:22.493Z,4.50
2023-11-07T00:19:49.976Z,3.97
2023-11-07T00:22:17.363Z,4.70
2023-11-07T00:24:45.033Z,6.82
2023-11-07T00:27:12.479Z,5.95
2023-11-07T00:29:39.585Z,6.18
2023-11-07T00:32:07.852Z,5.55
2023-11-07T00:34:35.065Z,4.95
2023-11-07T00:37:02.504Z,4.35
2023-11-07T00:39:29.536Z,4.82
2023-11-07T00:41:57.883Z,5.00
2023-11-07T00:44:25.361Z,4.28
2023-11-07T00:46:52.745Z,4.10
2023-11-07T00:49:19.856Z,4.35
2023-11-07T00:51:48.320Z,4.40
2023-11-07T00:54:15.523Z,4.47
2023-11-07T00:56:43.053Z,4.25
2023-11-07T00:59:10.115Z,4.20
2023-11-07T01:01:38.073Z,4.28
2023-11-07T01:04:05.443Z,4.80
2023-11-07T01:06:33.688Z,4.13
2023-11-07T01:09:01.513Z,3.80
2023-11-07T01:11:28.955Z,3.83
2023-11-07T01:13:56.030Z,4.80
2023-11-07T01:16:23.550Z,4.20
2023-11-07T01:18:50.810Z,4.10
2023-11-07T01:21:18.557Z,3.47
2023-11-07T01:23:45.752Z,4.50
2023-11-07T01:26:14.133Z,4.10
2023-11-07T01:28:41.228Z,3.78
2023-11-07T01:31:08.564Z,4.68
2023-11-07T01:33:40.981Z,4.60
2023-11-07T01:36:16.284Z,3.63
2023-11-07T01:38:52.635Z,4.65
2023-11-07T01:41:30.764Z,5.50
2023-11-07T01:46:47.239Z,6.75
2023-11-07T01:49:26.790Z,4.68
2023-11-07T01:52:01.131Z,4.78
2023-11-07T01:54:35.763Z,4.85
2023-11-07T01:57:05.614Z,5.13
2023-11-07T02:00:01.676Z,4.30
2023-11-07T02:02:41.291Z,3.42
2023-11-07T02:05:22.564Z,3.97
2023-11-07T02:08:12.369Z,4.22
2023-11-07T02:10:41.868Z,3.83
2023-11-07T02:13:14.516Z,4.88
2023-11-07T02:15:49.598Z,5.40
2023-11-07T02:18:17.772Z,7.60
2023-11-07T02:20:48.097Z,8.98
2023-11-07T02:23:31.804Z,7.70
2023-11-07T02:25:59.662Z,8.48
2023-11-07T02:28:34.768Z,7.68
2023-11-07T02:31:05.812Z,4.65
2023-11-07T02:33:39.976Z,4.57
2023-11-07T02:36:09.096Z,4.43
2023-11-07T02:38:40.915Z,3.47
2023-11-07T02:41:12.941Z,4.47
2023-11-07T02:43:47.032Z,4.45
2023-11-07T02:46:19.725Z,5.25
2023-11-07T02:48:55.667Z,6.72
2023-11-07T02:51:24.447Z,6.10
2023-11-07T02:53:52.609Z,7.13
2023-11-07T02:56:29.498Z,6.13
2023-11-07T02:59:03.924Z,4.78
2023-11-07T03:01:36.229Z,4.63
2023-11-07T03:04:04.415Z,6.18
2023-11-07T03:06:34.648Z,4.85
2023-11-07T03:09:10.139Z,5.38
2023-11-07T03:11:38.021Z,7.25
2023-11-07T03:14:07.410Z,5.47
2023-11-07T03:17:03.691Z,6.18
2023-11-07T03:19:35.069Z,6.32
2023-11-07T03:24:48.796Z,6.47
2023-11-07T03:30:12.236Z,5.43
2023-11-07T03:32:49.534Z,5.15
2023-11-07T03:35:19.595Z,6.45
2023-11-07T03:37:50.969Z,6.55
2023-11-07T03:43:08.682Z,5.68
2023-11-07T03:45:43.279Z,6.88
2023-11-07T03:48:26.041Z,5.35
2023-11-07T03:51:00.850Z,5.85
2023-11-07T03:53:33.040Z,5.63
2023-11-07T03:56:34.533Z,5.68
2023-11-07T03:59:04.785Z,6.20
2023-11-07T04:01:40.908Z,6.45
2023-11-07T04:04:10.877Z,7.35
2023-11-07T04:06:41.120Z,6.30
2023-11-07T04:11:45.114Z,6.40
2023-11-07T04:14:14.058Z,7.43
2023-11-07T04:16:43.083Z,7.38
2023-11-07T04:19:13.215Z,6.90
2023-11-07T04:21:45.166Z,7.72
2023-11-07T04:24:14.368Z,8.05
2023-11-07T04:26:45.276Z,7.80
2023-11-07T04:29:21.470Z,8.77
2023-11-07T04:31:52.181Z,7.30
2023-11-07T04:34:21.032Z,7.13
2023-11-07T04:36:58.525Z,9.25
2023-11-07T04:39:26.717Z,7.65
2023-11-07T04:41:55.205Z,7.25
2023-11-07T04:44:22.765Z,8.02
2023-11-07T04:46:54.404Z,7.53
2023-11-07T04:49:31.604Z,7.45
2023-11-07T04:52:05.660Z,8.18
2023-11-07T04:54:34.665Z,7.55
2023-11-07T04:57:03.239Z,7.47
2023-11-07T04:59:34.252Z,8.10
2023-11-07T05:02:30.273Z,8.18
2023-11-07T05:05:02.652Z,8.73
2023-11-07T05:07:36.268Z,6.97
2023-11-07T05:10:11.598Z,7.82
2023-11-07T05:13:07.306Z,7.82
2023-11-07T05:18:48.582Z,7.63
2023-11-07T05:21:19.257Z,6.38
2023-11-07T05:24:10.266Z,6.72
2023-11-07T05:29:55.498Z,8.05
2023-11-07T05:32:58.406Z,8.43
2023-11-07T05:36:24.203Z,9.35
2023-11-07T05:39:08.380Z,6.95
2023-11-07T05:42:16.557Z,7.00
2023-11-07T05:45:14.369Z,8.27
2023-11-07T05:49:11.664Z,7.25
2023-11-07T05:52:02.634Z,6.50
2023-11-07T05:55:22.687Z,7.20
2023-11-07T05:57:59.323Z,6.55
2023-11-07T06:00:36.300Z,6.85
2023-11-07T06:04:04.064Z,6.68
2023-11-07T06:07:32.152Z,6.68
2023-11-07T06:10:59.351Z,7.55
2023-11-07T06:14:07.067Z,9.10
2023-11-07T06:17:23.313Z,10.07
2023-11-07T06:23:16.968Z,9.15
2023-11-07T06:26:11.831Z,10.38
2023-11-07T06:34:01.350Z,8.68
2023-11-07T06:37:31.579Z,11.32
2023-11-07T06:40:19.333Z,10.20
2023-11-07T06:42:48.355Z,10.18
2023-11-07T06:45:16.428Z,10.35
2023-11-07T06:47:45.367Z,12.18
2023-11-07T06:50:14.935Z,12.48
2023-11-07T06:52:53.758Z,13.10
2023-11-07T06:55:29.412Z,12.48
2023-11-07T06:57:57.944Z,13.07
2023-11-07T07:00:30.764Z,12.93
2023-11-07T07:03:00.188Z,15.25
2023-11-07T07:05:28.684Z,12.65
2023-11-07T07:07:56.926Z,12.88
2023-11-07T07:10:25.122Z,13.00
2023-11-07T07:12:52.743Z,12.02
2023-11-07T07:15:19.953Z,12.60
2023-11-07T07:17:48.028Z,11.30
2023-11-07T07:20:15.366Z,10.82
2023-11-07T07:22:43.744Z,12.93
2023-11-07T07:25:16.978Z,12.27
2023-11-07T07:27:48.631Z,14.70
2023-11-07T07:30:23.561Z,15.18
2023-11-07T07:35:23.718Z,14.23
2023-11-07T07:37:53.826Z,15.10
2023-11-07T07:40:27.660Z,13.52
2023-11-07T07:43:11.226Z,13.70
2023-11-07T07:45:42.192Z,13.73
2023-11-07T07:48:16.660Z,14.57
2023-11-07T07:50:48.060Z,14.05
2023-11-07T07:53:18.525Z,16.33
2023-11-07T07:55:46.042Z,18.50
2023-11-07T07:58:20.557Z,17.35
2023-11-07T08:00:51.076Z,18.02
2023-11-07T08:03:20.447Z,19.65
2023-11-07T08:05:51.921Z,19.30
2023-11-07T08:08:19.687Z,22.13
2023-11-07T08:10:50.184Z,22.90
2023-11-07T08:13:22.548Z,21.75
2023-11-07T08:15:51.483Z,15.25
2023-11-07T08:18:20.830Z,10.55
2023-11-07T08:20:48.254Z,12.02
2023-11-07T08:23:15.941Z,14.23
2023-11-07T08:25:44.342Z,14.70
2023-11-07T08:28:12.756Z,14.18
2023-11-07T08:30:40.161Z,16.55
2023-11-07T08:33:09.664Z,14.93
2023-11-07T08:35:38.163Z,13.57
2023-11-07T08:38:06.277Z,10.75
2023-11-07T08:40:33.448Z,11.13
2023-11-07T08:43:01.279Z,13.52
2023-11-07T08:45:36.030Z,11.70
2023-11-07T08:48:04.923Z,13.00
2023-11-07T08:50:42.720Z,10.82
2023-11-07T08:53:11.349Z,11.45
2023-11-07T08:55:39.329Z,10.98
2023-11-07T08:58:07.054Z,12.40
2023-11-07T09:00:36.064Z,11.43
2023-11-07T09:03:10.192Z,9.02
2023-11-07T09:05:39.400Z,9.95
2023-11-07T09:08:07.597Z,8.18
2023-11-07T09:10:36.776Z,8.20
2023-11-07T09:13:05.797Z,6.20
2023-11-07T09:15:53.617Z,6.38
2023-11-07T09:19:33.989Z,4.72
2023-11-07T09:23:12.400Z,1.08
2023-11-07T09:26:42.790Z,1.00
2023-11-07T09:29:36.346Z,1.27
2023-11-07T09:32:43.701Z,1.27
2023-11-07T09:35:44.916Z,0.93
2023-11-07T09:41:48.702Z,1.50
2023-11-07T09:44:45.517Z,1.48
2023-11-07T09:47:43.973Z,1.33
2023-11-07T09:51:29.758Z,1.20
2023-11-07T09:54:39.192Z,1.45
2023-11-07T09:57:24.284Z,0.90
2023-11-07T10:04:44.539Z,0.95
2023-11-07T10:16:50.315Z,0.65
2023-11-07T10:33:58.665Z,0.68
2023-11-07T10:54:41.538Z,0.20
2023-11-07T10:57:55.979Z,0.20
2023-11-07T11:01:40.281Z,0.20
2023-11-07T11:04:27.334Z,0.22
2023-11-07T11:07:39.862Z,1.02
2023-11-07T11:14:25.104Z,0.30
2023-11-07T11:21:00.810Z,0.50
2023-11-07T11:24:30.285Z,0.40
2023-11-07T11:28:05.267Z,0.40
2023-11-07T11:30:55.646Z,0.50
2023-11-07T11:34:31.244Z,0.50
2023-11-07T11:46:54.469Z,0.40
2023-11-07T11:50:13.245Z,0.30
2023-11-07T11:53:41.520Z,0.20
2023-11-07T11:57:29.381Z,0.28
2023-11-07T12:00:23.882Z,0.20
2023-11-07T12:03:29.780Z,0.40
2023-11-07T12:06:28.205Z,0.20
2023-11-07T12:09:34.394Z,0.25
2023-11-07T12:12:41.096Z,0.57
2023-11-07T12:15:38.087Z,0.30
2023-11-07T12:18:52.762Z,0.57
2023-11-07T12:21:56.696Z,0.50
2023-11-07T12:29:09.141Z,0.32
2023-11-07T12:32:57.245Z,0.30
2023-11-07T12:35:47.365Z,0.52
2023-11-07T12:43:29.036Z,0.40
2023-11-07T12:47:09.197Z,0.32
2023-11-07T12:50:49.859Z,0.30
2023-11-07T12:54:49.799Z,0.30
2023-11-07T12:58:14.104Z,0.32
2023-11-07T13:01:49.117Z,0.38
2023-11-07T13:05:46.023Z,0.20
2023-11-07T13:09:33.398Z,0.38
2023-11-07T13:12:42.895Z,0.20
2023-11-07T13:15:24.579Z,0.20
2023-11-07T13:18:26.221Z,0.47
2023-11-07T13:21:26.613Z,0.43
2023-11-07T13:25:17.161Z,0.60
2023-11-07T13:32:00.342Z,0.55
2023-11-07T13:34:51.642Z,0.43
2023-11-07T13:37:22.169Z,0.30
2023-11-07T13:39:55.422Z,0.30
2023-11-07T13:42:42.751Z,0.47
2023-11-07T13:48:56.934Z,0.38
2023-11-07T13:51:43.205Z,0.40
2023-11-07T13:54:49.381Z,0.40
2023-11-07T13:58:26.223Z,0.50
2023-11-07T14:01:25.769Z,0.25
2023-11-07T14:04:26.119Z,0.43
2023-11-07T14:07:20.526Z,0.55
2023-11-07T14:09:49.092Z,0.50
2023-11-07T14:12:16.672Z,0.40
2023-11-07T14:14:44.011Z,0.90
2023-11-07T14:17:11.542Z,1.00
2023-11-07T14:19:38.785Z,0.40
2023-11-07T14:22:08.283Z,0.57
2023-11-07T14:24:37.194Z,0.60
2023-11-07T14:27:09.277Z,0.57
2023-11-07T14:29:55.191Z,0.45
2023-11-07T14:32:25.190Z,0.70
2023-11-07T14:34:52.840Z,0.60
2023-11-07T14:37:21.828Z,0.63
2023-11-07T14:39:50.123Z,1.00
2023-11-07T14:42:17.827Z,0.80
2023-11-07T14:44:46.712Z,0.73
2023-11-07T14:47:15.666Z,0.93
2023-11-07T14:49:42.817Z,0.60
2023-11-07T14:52:10.367Z,1.10
2023-11-07T14:54:37.548Z,0.80
2023-11-07T14:57:07.555Z,0.63
2023-11-07T14:59:34.995Z,1.33
2023-11-07T15:02:04.114Z,1.77
2023-11-07T15:04:35.655Z,0.93
2023-11-07T15:07:03.227Z,0.73
2023-11-07T15:09:33.224Z,0.80
2023-11-07T15:12:01.335Z,1.00
2023-11-07T15:14:29.881Z,0.88
2023-11-07T15:16:59.168Z,1.20
2023-11-07T15:19:26.425Z,1.70
2023-11-07T15:21:54.248Z,1.00
2023-11-07T15:24:24.138Z,1.60
2023-11-07T15:26:53.098Z,0.95
2023-11-07T15:29:30.552Z,0.70
2023-11-07T15:31:58.010Z,1.40
2023-11-07T15:34:26.163Z,1.10
2023-11-07T15:36:56.765Z,2.42
2023-11-07T15:39:25.837Z,1.58
2023-11-07T15:41:53.429Z,1.20
2023-11-07T15:44:21.378Z,0.93
2023-11-07T15:46:48.961Z,1.30
2023-11-07T15:49:17.393Z,1.50
2023-11-07T15:51:45.197Z,0.95
2023-11-07T15:54:15.192Z,2.38
2023-11-07T15:56:48.441Z,2.22
2023-11-07T15:59:16.263Z,1.90
2023-11-07T16:01:45.710Z,1.20
2023-11-07T16:04:49.989Z,1.25
2023-11-07T16:07:59.858Z,1.75
2023-11-07T16:10:29.082Z,2.88
2023-11-07T16:13:13.874Z,3.30
2023-11-07T16:15:42.301Z,1.83
2023-11-07T16:18:14.055Z,3.25
2023-11-07T16:20:44.095Z,2.78
2023-11-07T16:23:11.863Z,2.88
2023-11-07T16:25:38.962Z,2.90
2023-11-07T16:28:06.728Z,1.38
2023-11-07T16:30:34.142Z,1.70
2023-11-07T16:33:03.060Z,1.60
2023-11-07T16:35:31.560Z,3.17
2023-11-07T16:37:59.148Z,2.80
2023-11-07T16:40:29.117Z,1.92
2023-11-07T16:42:56.804Z,2.83
2023-11-07T16:45:24.529Z,1.70
2023-11-07T16:47:52.566Z,2.50
2023-11-07T16:50:22.058Z,1.83
2023-11-07T16:52:51.378Z,4.05
2023-11-07T16:55:20.070Z,2.50
2023-11-07T16:57:49.110Z,2.00
2023-11-07T17:00:19.970Z,2.53
2023-11-07T17:02:49.151Z,4.22
2023-11-07T17:05:18.689Z,3.92
2023-11-07T17:10:17.137Z,3.63
2023-11-07T17:12:48.474Z,2.30
2023-11-07T17:15:15.790Z,4.97
2023-11-07T17:17:49.440Z,3.90
2023-11-07T17:20:16.690Z,3.80
2023-11-07T17:22:45.186Z,4.53
2023-11-07T17:25:14.695Z,3.13
2023-11-07T17:27:45.169Z,4.10
2023-11-07T17:30:13.260Z,3.63
2023-11-07T17:32:40.934Z,4.57
2023-11-07T17:35:08.545Z,5.53
2023-11-07T17:37:38.756Z,5.95
2023-11-07T17:40:07.882Z,4.57
2023-11-07T17:42:35.508Z,3.30
2023-11-07T17:45:08.337Z,3.53
2023-11-07T17:47:36.215Z,4.00
2023-11-07T17:50:03.653Z,3.83
2023-11-07T17:52:39.089Z,4.18
2023-11-07T17:55:07.424Z,3.15
2023-11-07T17:57:35.030Z,3.63
2023-11-07T18:00:05.096Z,3.70
2023-11-07T18:02:32.764Z,4.05
2023-11-07T18:04:59.983Z,4.10
2023-11-07T18:07:29.949Z,3.90
2023-11-07T18:09:57.243Z,3.67
2023-11-07T18:12:24.899Z,3.35
2023-11-07T18:14:53.286Z,4.10
2023-11-07T18:17:21.634Z,4.97
2023-11-07T18:19:53.951Z,3.65
2023-11-07T18:22:27.947Z,4.80
2023-11-07T18:24:57.210Z,4.22
2023-11-07T18:27:25.474Z,4.97
2023-11-07T18:29:52.710Z,4.50
2023-11-07T18:32:23.167Z,4.22
2023-11-07T18:34:52.569Z,4.10
2023-11-07T18:37:21.182Z,4.35
2023-11-07T18:39:50.449Z,4.95
2023-11-07T18:42:19.480Z,4.07
2023-11-07T18:44:47.557Z,4.00
2023-11-07T18:47:17.846Z,4.35
2023-11-07T18:49:45.204Z,4.15
2023-11-07T19:00:01.672Z,3.40
2023-11-07T19:02:45.424Z,6.43
2023-11-07T19:05:15.091Z,8.73
2023-11-07T19:07:42.638Z,5.13
2023-11-07T19:10:10.285Z,5.38
2023-11-07T19:12:40.263Z,8.38
2023-11-07T19:15:09.352Z,5.10
2023-11-07T19:17:36.893Z,4.68
2023-11-07T19:20:05.341Z,3.45
2023-11-07T19:22:34.310Z,6.25
2023-11-07T19:25:01.723Z,2.30
2023-11-07T19:27:29.659Z,3.90
2023-11-07T19:30:00.495Z,6.00
2023-11-07T19:32:29.399Z,5.07
2023-11-07T19:35:09.588Z,4.70
2023-11-07T19:37:38.953Z,3.75
2023-11-07T19:40:22.741Z,3.38
2023-11-07T19:42:52.526Z,4.40
2023-11-07T19:48:51.649Z,3.00
2023-11-07T19:51:45.994Z,2.85
2023-11-07T19:59:01.064Z,3.05
2023-11-07T20:01:53.915Z,3.30
2023-11-07T20:04:39.290Z,2.72
2023-11-07T20:07:55.953Z,4.50
2023-11-07T20:11:32.194Z,5.80
2023-11-07T20:14:38.381Z,3.83
2023-11-07T20:18:08.458Z,4.28
2023-11-07T20:28:29.905Z,4.35
2023-11-07T20:31:56.878Z,4.10
2023-11-07T20:34:36.149Z,3.45
2023-11-07T20:37:29.839Z,3.63
2023-11-07T20:40:16.279Z,4.03
2023-11-07T20:43:06.124Z,3.88
2023-11-07T20:46:33.784Z,3.95
2023-11-07T20:53:18.698Z,2.60
2023-11-07T20:59:42.693Z,3.17
2023-11-07T21:02:30.777Z,3.22
2023-11-07T21:05:00.281Z,3.88
2023-11-07T21:07:27.831Z,2.88
2023-11-07T21:09:55.568Z,3.20
2023-11-07T21:12:23.038Z,4.30
2023-11-07T21:14:53.785Z,4.13
2023-11-07T21:17:32.127Z,3.95
2023-11-07T21:20:07.816Z,4.15
2023-11-07T21:25:37.939Z,3.13
2023-11-07T21:28:11.199Z,4.35
2023-11-07T21:33:27.674Z,5.13
2023-11-07T21:35:59.386Z,3.90
2023-11-07T21:38:27.277Z,3.38
2023-11-07T21:40:54.437Z,3.88
2023-11-07T21:43:21.977Z,4.95
2023-11-07T21:45:49.057Z,4.38
2023-11-07T21:48:17.251Z,4.00
2023-11-07T21:50:44.790Z,3.90
2023-11-07T21:53:25.660Z,3.72
2023-11-07T21:55:55.023Z,3.55
2023-11-07T21:58:22.958Z,4.43
2023-11-07T22:00:50.111Z,3.55
2023-11-07T22:03:17.763Z,4.88
2023-11-07T22:05:52.591Z,4.10
2023-11-07T22:08:23.358Z,3.72
2023-11-07T22:10:53.056Z,4.47
2023-11-07T22:13:23.449Z,4.20
2023-11-07T22:15:52.167Z,4.15
2023-11-07T22:18:20.169Z,4.13
2023-11-07T22:20:47.725Z,3.92
2023-11-07T22:23:15.500Z,3.58
2023-11-07T22:25:42.548Z,4.18
2023-11-07T22:28:10.628Z,4.00
2023-11-07T22:30:38.799Z,4.18
2023-11-07T22:33:06.797Z,3.70
2023-11-07T22:35:35.727Z,3.50
2023-11-07T22:38:06.152Z,3.65
2023-11-07T22:40:33.242Z,3.38
2023-11-07T22:43:01.474Z,4.00
2023-11-07T22:45:28.757Z,4.10
2023-11-07T22:47:56.523Z,3.00
2023-11-07T22:50:24.949Z,4.30
2023-11-07T22:52:52.492Z,2.15
2023-11-07T22:55:19.617Z,2.67
2023-11-07T22:57:48.504Z,2.88
2023-11-07T23:00:28.844Z,1.77
2023-11-07T23:03:01.176Z,2.10
2023-11-07T23:05:31.669Z,2.90
2023-11-07T23:08:09.895Z,2.15
2023-11-07T23:10:41.546Z,1.75
2023-11-07T23:13:20.691Z,2.30
2023-11-07T23:15:50.140Z,2.10
2023-11-07T23:18:21.356Z,1.60
2023-11-07T23:20:53.663Z,2.40
2023-11-07T23:23:21.899Z,1.90
2023-11-07T23:25:50.458Z,1.92
2023-11-07T23:36:07.590Z,3.33
2023-11-07T23:38:39.340Z,2.47
2023-11-07T23:41:06.925Z,3.10
2023-11-07T23:43:36.834Z,2.85
2023-11-07T23:46:04.631Z,2.63
2023-11-07T23:48:34.640Z,2.70
2023-11-07T23:51:02.171Z,2.70
2023-11-07T23:53:32.490Z,2.42
2023-11-07T23:56:00.308Z,2.00
2023-11-07T23:58:28.960Z,2.90
